Terminal Aerodrome Forecast
Issued by NWS

Home | Current Version | Previous Version | Text Only | Print | Product List | Glossary On
Versions: 1 2 3 4 5 6 7 8 9 10 11 12 13 14 15 16
000
FTUS45 KREV 061736
TAFRNO
TAF
KRNO 061736Z 0618/0718 34005KT P6SM FEW020 BKN040
     FM062200 03010KT P6SM -SHRA VCTS FEW030 BKN050CB
     FM070200 33009KT P6SM VCSH FEW015 BKN045
     FM070900 30010KT 5SM RA BR SCT020 OVC030=

USA.gov is the U.S. government's official web portal to all federal, state and local government web resources and services.